Time;durP1;ratioP1;P1;durP2;ratioP2;P2;SDS_P1;SDS_P2;PMS_P1;PMS_P2;Temp;Humidity;BMP_temperature;BMP_pressure;BME280_temperature;BME280_humidity;BME280_pressure;Samples;Min_cycle;Max_cycle;Signal;HPM_P1;HPM_P2
2024/04/05 00:02:18;;;;;;;4.37;2.40;;;11.80;1.00;;;;;;5019102;28;20472;-41
2024/04/05 00:04:44;;;;;;;2.90;2.00;;;11.90;1.00;;;;;;5019979;28;20576;-43
2024/04/05 00:07:09;;;;;;;3.20;2.33;;;11.80;1.00;;;;;;5018172;28;20426;-40
2024/04/05 00:09:35;;;;;;;2.73;2.00;;;11.80;1.00;;;;;;5018313;28;20623;-40
2024/04/05 00:12:01;;;;;;;3.40;2.20;;;11.80;1.00;;;;;;5018253;28;20652;-45
2024/04/05 00:14:26;;;;;;;4.40;2.47;;;11.80;1.00;;;;;;5017853;28;20562;-42
2024/04/05 00:16:52;;;;;;;3.30;2.40;;;11.80;1.00;;;;;;5017936;28;20274;-43
2024/04/05 00:19:17;;;;;;;8.17;2.90;;;11.80;1.00;;;;;;5018975;28;20281;-41
2024/04/05 00:21:43;;;;;;;5.30;2.50;;;11.80;1.00;;;;;;5019122;28;20183;-41
2024/04/05 00:24:08;;;;;;;5.40;2.80;;;11.90;1.00;;;;;;5017896;28;20470;-45
2024/04/05 00:26:35;;;;;;;3.67;2.37;;;11.80;1.00;;;;;;5017992;28;20187;-40
2024/04/05 00:29:01;;;;;;;5.20;2.80;;;11.90;1.00;;;;;;5017511;28;20470;-42
2024/04/05 00:31:26;;;;;;;2.57;2.00;;;11.90;1.00;;;;;;5016886;28;20437;-41
2024/04/05 00:33:53;;;;;;;4.50;2.80;;;11.90;1.00;;;;;;5017687;28;20195;-43
2024/04/05 00:36:20;;;;;;;4.97;2.57;;;11.90;1.00;;;;;;5018006;28;20186;-41
2024/04/05 00:38:45;;;;;;;2.50;1.77;;;11.90;1.00;;;;;;5018336;28;20499;-41
2024/04/05 00:41:11;;;;;;;4.60;2.03;;;11.90;1.00;;;;;;5018262;28;20438;-42
2024/04/05 00:43:37;;;;;;;3.80;2.33;;;11.90;1.00;;;;;;5018390;28;20249;-41
2024/04/05 00:46:04;;;;;;;5.13;2.27;;;12.00;1.00;;;;;;5018652;28;20262;-41
2024/04/05 00:48:31;;;;;;;5.20;2.17;;;11.90;1.00;;;;;;5018229;28;20282;-41
2024/04/05 00:50:57;;;;;;;3.80;2.33;;;11.90;1.00;;;;;;5017811;28;20422;-40
2024/04/05 00:53:31;;;;;;;4.57;2.30;;;11.90;1.00;;;;;;5016662;28;20533;-41
2024/04/05 00:55:58;;;;;;;2.57;2.17;;;11.90;1.00;;;;;;5017429;28;20183;-41
2024/04/05 00:58:24;;;;;;;6.17;2.90;;;12.00;1.00;;;;;;5018819;28;20499;-41
2024/04/05 01:00:49;;;;;;;4.33;2.40;;;12.00;1.00;;;;;;5019095;28;20517;-41
2024/04/05 01:03:15;;;;;;;6.53;3.07;;;12.00;1.00;;;;;;5018153;28;20225;-41
2024/04/05 01:05:41;;;;;;;5.13;2.00;;;11.90;1.00;;;;;;5018569;28;20186;-43
2024/04/05 01:08:09;;;;;;;6.17;2.40;;;11.90;1.00;;;;;;5018539;28;20418;-41
2024/04/05 01:10:35;;;;;;;6.67;2.50;;;11.90;1.00;;;;;;5018585;28;20492;-41
2024/04/05 01:13:03;;;;;;;2.27;1.93;;;11.90;1.00;;;;;;5018385;28;20436;-43
2024/04/05 01:15:29;;;;;;;5.17;2.00;;;11.90;1.00;;;;;;5017676;28;20752;-42
2024/04/05 01:17:56;;;;;;;4.80;2.07;;;11.80;1.00;;;;;;5017654;28;20496;-42
2024/04/05 01:20:25;;;;;;;4.97;2.63;;;11.80;1.00;;;;;;5016104;28;20245;-41
2024/04/05 01:22:53;;;;;;;4.43;2.80;;;11.80;1.00;;;;;;5018742;28;20698;-41
2024/04/05 01:25:22;;;;;;;2.33;1.80;;;11.80;1.00;;;;;;5018125;28;20427;-42
2024/04/05 01:27:48;;;;;;;3.83;2.33;;;11.90;1.00;;;;;;5018536;28;20903;-42
2024/04/05 01:30:14;;;;;;;6.07;2.83;;;11.80;1.00;;;;;;5017995;28;20465;-42
2024/04/05 01:32:39;;;;;;;3.57;2.50;;;11.90;1.00;;;;;;5017348;28;20542;-41
2024/04/05 01:35:05;;;;;;;3.17;2.20;;;11.80;1.00;;;;;;5019511;28;20191;-41
2024/04/05 01:37:31;;;;;;;4.37;2.27;;;11.80;1.00;;;;;;5019895;28;20196;-41
2024/04/05 01:39:56;;;;;;;4.10;2.20;;;11.80;1.00;;;;;;5019346;28;20203;-40
2024/04/05 01:42:22;;;;;;;2.87;2.23;;;11.80;1.00;;;;;;5018043;28;20223;-41
2024/04/05 01:44:48;;;;;;;6.43;2.20;;;11.80;1.00;;;;;;5017930;28;20171;-43
2024/04/05 01:47:13;;;;;;;3.53;2.53;;;11.80;1.00;;;;;;5016924;28;20187;-43
2024/04/05 01:49:40;;;;;;;3.80;2.10;;;11.80;1.00;;;;;;5018238;28;20194;-40
2024/04/05 01:52:06;;;;;;;2.73;2.40;;;11.80;1.00;;;;;;5018608;28;20277;-41
2024/04/05 01:54:34;;;;;;;4.60;2.73;;;11.80;1.00;;;;;;5018314;28;20446;-43
2024/04/05 01:57:00;;;;;;;3.50;2.20;;;11.80;1.00;;;;;;5018132;28;20207;-53
2024/04/05 01:59:26;;;;;;;3.43;2.40;;;11.80;1.00;;;;;;5018263;28;20422;-41
2024/04/05 02:01:51;;;;;;;3.63;1.93;;;11.80;1.00;;;;;;5017443;28;20183;-42
2024/04/05 02:10:41;;;;;;;3.90;2.10;;;11.90;1.00;;;;;;5002642;28;20714;-42
2024/04/05 02:13:07;;;;;;;2.80;2.00;;;11.90;1.00;;;;;;4979702;28;20566;-40
2024/04/05 02:15:32;;;;;;;3.10;2.10;;;11.90;1.00;;;;;;4983732;28;20191;-42
2024/04/05 02:17:58;;;;;;;4.53;2.80;;;11.90;1.00;;;;;;5000789;28;20198;-42
2024/04/05 02:20:24;;;;;;;3.73;2.10;;;11.90;1.00;;;;;;4999067;28;20274;-41
2024/04/05 02:22:49;;;;;;;3.90;2.30;;;12.00;1.00;;;;;;4982790;28;20219;-42
2024/04/05 02:25:15;;;;;;;3.60;2.40;;;12.00;1.00;;;;;;4983567;28;20195;-41
2024/04/05 02:27:41;;;;;;;5.20;2.00;;;12.00;1.00;;;;;;5000015;28;20184;-42
2024/04/05 02:30:07;;;;;;;2.67;1.93;;;12.00;1.00;;;;;;4999924;28;20276;-43
2024/04/05 02:32:37;;;;;;;3.00;2.00;;;12.00;1.00;;;;;;4983041;28;20533;-41
2024/04/05 02:35:03;;;;;;;4.83;2.50;;;12.00;1.00;;;;;;5001019;28;20415;-42
2024/04/05 02:37:28;;;;;;;3.97;1.73;;;11.90;1.00;;;;;;5001272;28;20243;-43
2024/04/05 02:39:54;;;;;;;5.60;2.10;;;11.90;1.00;;;;;;4984437;28;20451;-42
2024/04/05 02:42:20;;;;;;;3.90;2.17;;;11.90;1.00;;;;;;5001440;28;20196;-42
2024/04/05 02:44:45;;;;;;;4.03;2.00;;;12.00;1.00;;;;;;4984017;28;20200;-44
2024/04/05 02:47:12;;;;;;;3.30;2.00;;;11.90;1.00;;;;;;5000558;28;20258;-44
2024/04/05 02:49:38;;;;;;;5.43;2.57;;;12.00;1.00;;;;;;5000692;28;20266;-41
2024/04/05 02:52:04;;;;;;;3.03;2.07;;;11.90;1.00;;;;;;5000874;28;20517;-41
2024/04/05 02:54:32;;;;;;;2.60;1.73;;;11.90;1.00;;;;;;5000766;28;20806;-41
2024/04/05 02:56:57;;;;;;;3.87;1.90;;;11.90;1.00;;;;;;5000863;28;20478;-42
2024/04/05 02:59:23;;;;;;;2.90;2.17;;;11.90;1.00;;;;;;5000607;28;20423;-42
2024/04/05 03:01:49;;;;;;;3.30;2.43;;;11.80;1.00;;;;;;5000892;28;20179;-41
2024/04/05 03:04:14;;;;;;;3.63;2.07;;;11.80;1.00;;;;;;4983639;28;20222;-42
2024/04/05 03:06:40;;;;;;;2.40;1.70;;;11.90;1.00;;;;;;5000830;28;20188;-41
2024/04/05 03:09:06;;;;;;;4.50;2.30;;;11.80;1.00;;;;;;5002781;28;20571;-43
2024/04/05 03:11:31;;;;;;;4.90;2.77;;;11.80;1.00;;;;;;5019823;28;20183;-40
2024/04/05 03:13:57;;;;;;;7.30;2.30;;;11.80;1.00;;;;;;5020182;28;20191;-41
2024/04/05 03:16:22;;;;;;;3.20;2.23;;;11.80;1.00;;;;;;5019640;28;20555;-41
2024/04/05 03:18:48;;;;;;;3.50;2.33;;;11.80;1.00;;;;;;5018074;28;20206;-41
2024/04/05 03:21:14;;;;;;;5.90;2.83;;;11.80;1.00;;;;;;5019838;28;20276;-43
2024/04/05 03:23:39;;;;;;;3.67;2.70;;;11.80;1.00;;;;;;5019148;28;20369;-42
2024/04/05 03:26:05;;;;;;;3.60;2.00;;;11.70;1.00;;;;;;5019013;28;20175;-44
2024/04/05 03:28:31;;;;;;;2.70;1.90;;;11.70;1.00;;;;;;5017525;28;20214;-43
2024/04/05 03:30:57;;;;;;;5.50;2.40;;;11.70;1.00;;;;;;5001342;28;20265;-43
2024/04/05 03:33:22;;;;;;;4.70;2.27;;;11.70;1.00;;;;;;5017700;28;20194;-41
2024/04/05 03:35:48;;;;;;;3.60;1.77;;;11.70;1.00;;;;;;5019339;28;20422;-42
2024/04/05 03:38:14;;;;;;;4.33;2.47;;;11.70;1.00;;;;;;5018148;28;20201;-42
2024/04/05 03:40:40;;;;;;;3.63;1.87;;;11.70;1.00;;;;;;5019088;28;20268;-41
2024/04/05 03:43:09;;;;;;;4.27;1.97;;;11.70;1.00;;;;;;5002223;28;20470;-42
2024/04/05 03:45:35;;;;;;;3.23;2.60;;;11.80;1.00;;;;;;5019205;28;20422;-42
2024/04/05 03:48:00;;;;;;;4.03;2.20;;;11.80;1.00;;;;;;5019306;28;20507;-41
2024/04/05 03:50:26;;;;;;;2.50;1.83;;;11.80;1.00;;;;;;5000936;28;20171;-42
2024/04/05 03:52:52;;;;;;;5.80;2.27;;;11.70;1.00;;;;;;5019071;28;20454;-41
2024/04/05 03:55:17;;;;;;;6.00;2.90;;;11.80;1.00;;;;;;5018817;28;20191;-42
2024/04/05 03:57:47;;;;;;;3.73;2.20;;;11.70;1.00;;;;;;5017991;28;20241;-42
2024/04/05 04:00:13;;;;;;;5.53;2.10;;;11.70;1.00;;;;;;5017367;28;20199;-44
2024/04/05 04:02:38;;;;;;;3.40;1.87;;;11.70;1.00;;;;;;5016626;28;20468;-44
2024/04/05 04:05:04;;;;;;;7.60;3.23;;;11.70;1.00;;;;;;5015478;28;20728;-40
2024/04/05 04:07:30;;;;;;;5.93;2.03;;;11.80;1.00;;;;;;5015673;28;20250;-42
2024/04/05 04:09:55;;;;;;;4.70;2.20;;;11.80;1.00;;;;;;5016490;28;20466;-41
2024/04/05 04:12:22;;;;;;;3.90;1.60;;;11.80;1.00;;;;;;4998929;28;20265;-42
2024/04/05 04:14:48;;;;;;;2.77;2.03;;;11.80;1.00;;;;;;5016305;28;20191;-43
2024/04/05 04:17:15;;;;;;;3.10;1.80;;;11.70;1.00;;;;;;5015925;28;20418;-43
2024/04/05 04:19:41;;;;;;;4.17;2.03;;;11.70;1.00;;;;;;5016333;28;20236;-41
2024/04/05 04:22:07;;;;;;;6.00;2.60;;;11.70;1.00;;;;;;5016344;28;20789;-41
2024/04/05 04:24:33;;;;;;;2.30;1.80;;;11.70;1.00;;;;;;5013982;28;20230;-43
2024/04/05 04:26:58;;;;;;;3.47;1.87;;;11.60;1.00;;;;;;5013455;28;20418;-42
2024/04/05 04:29:24;;;;;;;7.33;2.10;;;11.60;1.00;;;;;;5013726;28;20359;-42
2024/04/05 04:31:50;;;;;;;2.40;1.67;;;11.60;1.00;;;;;;5014780;28;20186;-41
2024/04/05 04:34:16;;;;;;;1.67;1.57;;;11.60;1.00;;;;;;5016716;28;20433;-44
2024/04/05 04:36:42;;;;;;;3.27;1.90;;;11.50;1.00;;;;;;5016528;28;20441;-44
2024/04/05 04:39:08;;;;;;;5.83;2.80;;;11.50;1.00;;;;;;5016568;28;20456;-43
2024/04/05 04:41:35;;;;;;;4.40;2.00;;;11.40;1.00;;;;;;4999904;28;20175;-41
2024/04/05 04:44:01;;;;;;;4.17;2.03;;;11.40;1.00;;;;;;5017732;28;20454;-42
2024/04/05 04:46:26;;;;;;;3.33;1.67;;;11.30;1.00;;;;;;5016975;28;20904;-44
2024/04/05 04:48:53;;;;;;;5.83;2.50;;;11.30;1.00;;;;;;5018407;28;20191;-42
2024/04/05 04:51:18;;;;;;;2.90;2.00;;;11.30;1.00;;;;;;5018197;28;20632;-42
2024/04/05 04:53:44;;;;;;;3.13;1.60;;;11.20;1.00;;;;;;5016947;28;20437;-42
2024/04/05 04:56:12;;;;;;;3.73;2.07;;;11.20;1.00;;;;;;5018326;28;20206;-41
2024/04/05 04:58:38;;;;;;;2.70;1.73;;;11.20;1.00;;;;;;5017848;28;20430;-44
2024/04/05 05:01:03;;;;;;;3.77;2.10;;;11.20;1.00;;;;;;5016839;28;20437;-44
2024/04/05 05:03:29;;;;;;;2.47;2.27;;;11.20;1.00;;;;;;5017098;28;20215;-43
2024/04/05 05:05:55;;;;;;;3.43;2.33;;;11.30;1.00;;;;;;5016337;28;20629;-42
2024/04/05 05:08:21;;;;;;;4.60;2.47;;;11.30;1.00;;;;;;5016373;28;20215;-43
2024/04/05 05:10:46;;;;;;;2.90;2.03;;;11.30;1.00;;;;;;5014570;28;20461;-42
2024/04/05 05:13:13;;;;;;;3.40;2.10;;;11.30;1.00;;;;;;5015644;28;20191;-42
2024/04/05 05:15:42;;;;;;;3.17;2.00;;;11.30;1.00;;;;;;4998510;28;20191;-42
2024/04/05 05:18:09;;;;;;;2.40;2.20;;;11.30;1.00;;;;;;5014370;28;20496;-41
2024/04/05 05:20:35;;;;;;;3.17;2.37;;;11.30;1.00;;;;;;5013942;28;20685;-43
2024/04/05 05:23:00;;;;;;;3.10;2.80;;;11.30;1.00;;;;;;4997516;28;20469;-41
2024/04/05 05:25:26;;;;;;;3.43;2.20;;;11.40;1.00;;;;;;4997236;28;20445;-43
2024/04/05 05:27:52;;;;;;;4.20;2.97;;;11.40;1.00;;;;;;5014935;28;20465;-42
2024/04/05 05:30:18;;;;;;;4.90;2.13;;;11.40;1.00;;;;;;5014668;28;20270;-42
2024/04/05 05:32:44;;;;;;;6.07;2.37;;;11.50;1.00;;;;;;5015710;28;20191;-44
2024/04/05 05:35:10;;;;;;;5.47;3.10;;;11.50;1.00;;;;;;5017235;28;20422;-43
2024/04/05 05:37:36;;;;;;;5.10;2.67;;;11.50;1.00;;;;;;5000355;28;20848;-44
2024/04/05 05:40:02;;;;;;;6.43;2.40;;;11.60;1.00;;;;;;5017098;28;20198;-42
2024/04/05 05:42:28;;;;;;;3.50;3.20;;;11.60;1.00;;;;;;5017180;28;20187;-44
2024/04/05 05:44:54;;;;;;;3.30;2.60;;;11.60;1.00;;;;;;5016915;28;20425;-42
2024/04/05 05:47:20;;;;;;;3.20;2.73;;;11.60;1.00;;;;;;5017037;28;20758;-42
2024/04/05 05:49:49;;;;;;;3.73;2.50;;;11.70;1.00;;;;;;5018778;28;20816;-41
2024/04/05 05:52:15;;;;;;;5.63;2.50;;;11.70;1.00;;;;;;5001481;28;20501;-44
2024/04/05 05:54:41;;;;;;;3.90;2.40;;;11.70;1.00;;;;;;4999709;28;20598;-42
2024/04/05 05:57:07;;;;;;;6.13;2.60;;;11.80;1.00;;;;;;5018648;28;20426;-43
2024/04/05 05:59:33;;;;;;;3.57;2.77;;;11.90;1.00;;;;;;5016504;28;20291;-43
2024/04/05 06:01:58;;;;;;;2.43;2.23;;;12.00;1.00;;;;;;4998914;28;20581;-42
2024/04/05 06:04:25;;;;;;;5.00;2.30;;;12.20;1.00;;;;;;5016193;28;20467;-41
2024/04/05 06:06:54;;;;;;;4.27;2.50;;;12.30;1.00;;;;;;5000516;28;20216;-42
2024/04/05 06:09:20;;;;;;;3.77;3.30;;;12.50;1.00;;;;;;5018059;28;20454;-43
2024/04/05 06:11:46;;;;;;;3.90;2.43;;;12.60;1.00;;;;;;5018980;28;20440;-45
2024/04/05 06:14:11;;;;;;;5.33;2.90;;;12.80;1.00;;;;;;5019521;28;20210;-42
2024/04/05 06:16:37;;;;;;;3.57;2.10;;;13.00;1.00;;;;;;5018669;28;20464;-43
2024/04/05 06:19:03;;;;;;;3.23;1.97;;;13.20;99.90;;;;;;5019403;28;20522;-43
2024/04/05 06:21:29;;;;;;;3.60;2.10;;;13.30;99.90;;;;;;5017354;28;20215;-42
2024/04/05 06:23:59;;;;;;;3.10;2.03;;;13.50;99.90;;;;;;5018120;28;20314;-43
2024/04/05 06:26:25;;;;;;;3.67;1.90;;;13.80;99.90;;;;;;5019070;28;20848;-42
2024/04/05 06:28:50;;;;;;;3.40;1.90;;;14.00;35.40;;;;;;5019162;28;20415;-44
2024/04/05 06:31:17;;;;;;;4.87;2.20;;;14.10;14.00;;;;;;5019220;28;20441;-44
2024/04/05 06:33:44;;;;;;;4.30;1.97;;;14.30;1.00;;;;;;5019667;28;20219;-44
2024/04/05 06:36:09;;;;;;;6.03;3.50;;;14.40;1.00;;;;;;5020503;28;20425;-43
2024/04/05 06:38:35;;;;;;;2.67;1.23;;;14.40;1.00;;;;;;5020182;28;20422;-42
2024/04/05 06:41:01;;;;;;;5.73;2.23;;;14.30;1.00;;;;;;5019197;28;20195;-43
2024/04/05 06:43:28;;;;;;;3.40;1.77;;;14.40;1.00;;;;;;5015506;28;20226;-42
2024/04/05 06:46:00;;;;;;;4.80;1.90;;;14.40;1.00;;;;;;5016889;28;20438;-45
2024/04/05 06:48:26;;;;;;;3.10;1.80;;;14.50;1.00;;;;;;5017485;28;20881;-42
2024/04/05 06:50:53;;;;;;;5.20;1.97;;;14.60;1.00;;;;;;5018302;28;20532;-42
2024/04/05 06:53:29;;;;;;;3.63;2.23;;;14.70;99.90;;;;;;5001440;28;20433;-45
2024/04/05 06:55:55;;;;;;;5.13;2.20;;;14.80;99.90;;;;;;5018287;28;20410;-45
2024/04/05 06:58:22;;;;;;;4.57;2.07;;;14.70;99.90;;;;;;5017502;28;20883;-43
2024/04/05 07:00:48;;;;;;;3.33;2.17;;;14.70;99.90;;;;;;4997698;28;20221;-42
2024/04/05 07:03:14;;;;;;;3.50;2.13;;;14.70;99.90;;;;;;5015479;28;20509;-43
2024/04/05 07:05:40;;;;;;;3.73;1.90;;;14.80;99.90;;;;;;5017158;28;20770;-43
2024/04/05 07:08:06;;;;;;;4.70;2.23;;;14.80;99.90;;;;;;5018689;28;20179;-43
2024/04/05 07:10:33;;;;;;;3.77;1.90;;;14.90;99.90;;;;;;5000679;28;20559;-43
2024/04/05 07:12:59;;;;;;;3.57;2.43;;;15.00;86.00;;;;;;5017599;28;20430;-42
2024/04/05 07:15:25;;;;;;;2.67;1.53;;;15.10;1.00;;;;;;5019340;28;20448;-44
2024/04/05 07:17:54;;;;;;;2.20;1.80;;;15.00;1.00;;;;;;5018925;28;20199;-42
2024/04/05 07:20:26;;;;;;;3.47;2.00;;;14.90;1.00;;;;;;5002326;28;20493;-42
2024/04/05 07:22:53;;;;;;;4.20;2.33;;;15.00;99.90;;;;;;5020355;28;20461;-43
2024/04/05 07:25:23;;;;;;;6.30;2.07;;;14.90;99.90;;;;;;5002433;28;20430;-43
2024/04/05 07:27:53;;;;;;;4.63;2.40;;;15.10;99.90;;;;;;5001481;28;20520;-44
2024/04/05 07:30:20;;;;;;;3.97;1.93;;;15.20;99.90;;;;;;5003056;28;20494;-42
2024/04/05 07:32:45;;;;;;;4.37;2.23;;;15.30;99.90;;;;;;5018352;28;20430;-43
2024/04/05 07:35:11;;;;;;;3.37;2.00;;;15.40;99.90;;;;;;5016942;28;20619;-42
2024/04/05 07:37:37;;;;;;;3.50;2.43;;;15.50;29.60;;;;;;5018388;28;20566;-42
2024/04/05 07:40:03;;;;;;;2.93;2.20;;;15.70;99.90;;;;;;5018767;28;20437;-51
2024/04/05 07:42:29;;;;;;;3.60;2.27;;;15.80;1.00;;;;;;4999869;28;20451;-42
2024/04/05 07:44:56;;;;;;;2.50;1.87;;;15.80;1.00;;;;;;4999963;28;20441;-45
2024/04/05 07:47:21;;;;;;;3.83;2.17;;;15.90;1.00;;;;;;5017150;28;20414;-42
2024/04/05 07:49:52;;;;;;;3.30;2.30;;;16.00;1.00;;;;;;5017490;28;20488;-44
2024/04/05 07:52:18;;;;;;;5.27;2.40;;;16.10;93.40;;;;;;5016393;28;20488;-43
2024/04/05 07:54:44;;;;;;;4.40;2.73;;;16.20;99.90;;;;;;5018381;28;20845;-42
2024/04/05 07:57:12;;;;;;;2.87;2.13;;;16.30;99.90;;;;;;5000739;28;20506;-42
2024/04/05 07:59:38;;;;;;;3.20;2.13;;;16.40;99.90;;;;;;4999307;28;20278;-43
2024/04/05 08:02:04;;;;;;;3.93;2.23;;;16.60;99.90;;;;;;5016838;28;20446;-43
2024/04/05 08:04:31;;;;;;;4.50;2.17;;;16.70;1.00;;;;;;5016608;28;21064;-43
2024/04/05 08:06:58;;;;;;;4.73;1.90;;;16.70;1.00;;;;;;5017303;28;20229;-44
2024/04/05 08:09:26;;;;;;;3.50;1.93;;;16.80;99.90;;;;;;5012874;28;20475;-43
2024/04/05 08:11:52;;;;;;;2.50;1.90;;;16.90;1.00;;;;;;4979972;28;20446;-42
2024/04/05 08:14:18;;;;;;;2.77;1.40;;;17.10;1.00;;;;;;4980517;28;20445;-45
2024/04/05 08:16:43;;;;;;;3.93;2.40;;;17.30;99.90;;;;;;4997147;28;20180;-45
2024/04/05 08:19:09;;;;;;;4.00;2.00;;;17.50;5.10;;;;;;4981404;28;20624;-43
2024/04/05 08:21:35;;;;;;;3.27;1.80;;;17.50;99.90;;;;;;4997775;28;20196;-43
2024/04/05 08:24:02;;;;;;;4.53;1.60;;;17.50;99.90;;;;;;4997778;28;20559;-43
2024/04/05 08:26:27;;;;;;;3.20;1.90;;;17.60;99.90;;;;;;4998490;28;20514;-42
2024/04/05 08:28:53;;;;;;;5.30;1.93;;;17.50;99.90;;;;;;4981141;28;20411;-44
2024/04/05 08:31:18;;;;;;;3.43;2.33;;;17.60;99.90;;;;;;4999047;28;20188;-42
2024/04/05 08:33:44;;;;;;;2.83;2.00;;;17.70;99.90;;;;;;4997334;28;20191;-42
2024/04/05 08:36:10;;;;;;;5.43;1.90;;;17.80;99.90;;;;;;4981142;28;20283;-44
2024/04/05 08:38:36;;;;;;;2.47;2.03;;;17.90;99.90;;;;;;4996939;28;20664;-42
2024/04/05 08:41:06;;;;;;;2.70;1.43;;;18.20;1.00;;;;;;4997701;28;20694;-40
2024/04/05 08:43:34;;;;;;;2.47;1.53;;;18.50;1.00;;;;;;4996303;28;20322;-44
2024/04/05 08:45:59;;;;;;;3.73;1.93;;;18.70;99.90;;;;;;4980172;28;20430;-44
2024/04/05 08:48:26;;;;;;;6.37;1.80;;;19.00;1.00;;;;;;4997242;28;20505;-44
2024/04/05 08:50:52;;;;;;;4.30;1.80;;;19.10;1.00;;;;;;4995785;28;20279;-43
2024/04/05 08:53:18;;;;;;;2.50;1.50;;;19.20;1.00;;;;;;4995825;28;20519;-42
2024/04/05 08:55:44;;;;;;;2.80;1.73;;;19.10;1.00;;;;;;4996485;28;20529;-43
2024/04/05 08:58:10;;;;;;;2.60;1.57;;;19.20;1.00;;;;;;4980388;28;20187;-43
2024/04/05 09:00:38;;;;;;;5.13;2.30;;;19.40;1.00;;;;;;4997512;28;20453;-43
2024/04/05 09:03:04;;;;;;;3.83;1.40;;;19.50;99.90;;;;;;4996748;28;20326;-47
2024/04/05 09:05:30;;;;;;;7.90;1.87;;;19.60;99.90;;;;;;4997103;28;20514;-45
2024/04/05 09:08:06;;;;;;;3.03;1.13;;;19.60;99.90;;;;;;4996084;28;20723;-42
2024/04/05 09:10:31;;;;;;;3.50;1.63;;;19.50;99.90;;;;;;4997103;28;20219;-42
2024/04/05 09:12:59;;;;;;;4.83;1.50;;;19.50;99.90;;;;;;4994392;28;20561;-44
2024/04/05 09:15:25;;;;;;;2.63;1.60;;;19.80;99.90;;;;;;4995338;28;20435;-41
2024/04/05 09:17:51;;;;;;;2.50;1.40;;;20.00;99.90;;;;;;4995996;28;20427;-44
2024/04/05 09:20:24;;;;;;;4.33;1.80;;;20.40;99.90;;;;;;4993973;28;20582;-44
2024/04/05 09:23:04;;;;;;;2.03;1.60;;;20.60;92.00;;;;;;4979105;28;20565;-42
2024/04/05 09:25:31;;;;;;;2.07;1.67;;;20.70;54.50;;;;;;4997544;28;20533;-42
2024/04/05 09:28:20;;;;;;;2.83;1.43;;;20.70;41.90;;;;;;5000071;28;20431;-42
2024/04/05 09:30:49;;;;;;;4.17;1.40;;;20.80;28.30;;;;;;4999824;28;20763;-42
2024/04/05 09:33:19;;;;;;;3.33;1.43;;;20.60;17.80;;;;;;4983910;28;20447;-42
2024/04/05 09:35:45;;;;;;;1.40;1.10;;;20.90;28.80;;;;;;4999380;28;20830;-42
2024/04/05 09:38:12;;;;;;;3.37;1.63;;;21.00;20.50;;;;;;5000915;28;20415;-45
2024/04/05 09:40:40;;;;;;;2.17;1.60;;;21.30;6.20;;;;;;4999600;28;20450;-43
2024/04/05 09:43:07;;;;;;;2.40;1.30;;;21.50;1.00;;;;;;4999666;28;20478;-42
2024/04/05 09:45:35;;;;;;;3.50;1.50;;;21.50;1.00;;;;;;5000399;28;20435;-44
2024/04/05 09:48:03;;;;;;;2.63;1.40;;;21.60;1.00;;;;;;4999763;28;20430;-45
2024/04/05 09:50:30;;;;;;;3.70;1.80;;;21.90;1.00;;;;;;4999414;28;20422;-45
2024/04/05 09:52:56;;;;;;;2.90;1.23;;;21.70;1.00;;;;;;4999050;28;20423;-42
2024/04/05 09:55:29;;;;;;;2.00;1.60;;;21.30;1.00;;;;;;4999030;28;20513;-43
2024/04/05 09:57:58;;;;;;;2.23;1.40;;;21.40;1.00;;;;;;4999596;28;20434;-43
2024/04/05 10:00:24;;;;;;;3.80;1.43;;;21.40;1.00;;;;;;4999096;28;20442;-42
2024/04/05 10:02:53;;;;;;;3.70;1.30;;;21.10;1.00;;;;;;4997845;28;20838;-45
2024/04/05 10:05:35;;;;;;;2.23;1.00;;;21.10;1.00;;;;;;4997005;28;20415;-43
2024/04/05 10:08:13;;;;;;;4.43;1.33;;;21.30;1.00;;;;;;4981067;28;20435;-43
2024/04/05 10:10:39;;;;;;;1.83;1.10;;;21.70;1.00;;;;;;5015015;28;20523;-45
2024/04/05 10:13:12;;;;;;;2.23;1.10;;;21.90;1.00;;;;;;5019247;28;20468;-44
2024/04/05 10:15:39;;;;;;;3.70;1.40;;;22.20;1.00;;;;;;5018665;28;20867;-42
2024/04/05 10:18:06;;;;;;;2.23;1.20;;;22.30;1.00;;;;;;5020251;28;20441;-44
2024/04/05 10:20:34;;;;;;;2.00;1.23;;;22.30;1.00;;;;;;5002241;28;20434;-43
2024/04/05 10:23:00;;;;;;;5.90;1.67;;;22.20;1.00;;;;;;5018443;28;20469;-42
2024/04/05 10:25:26;;;;;;;1.90;1.37;;;22.20;1.00;;;;;;5017746;28;20499;-42
2024/04/05 10:27:53;;;;;;;1.60;1.20;;;22.10;1.00;;;;;;5018128;28;20920;-44
2024/04/05 10:30:21;;;;;;;4.33;1.00;;;22.00;1.00;;;;;;5019199;28;20253;-43
2024/04/05 10:32:57;;;;;;;1.63;1.20;;;22.10;1.00;;;;;;5019583;28;20438;-42
2024/04/05 10:35:23;;;;;;;1.70;1.23;;;21.90;1.00;;;;;;5018525;28;20661;-42
2024/04/05 10:37:58;;;;;;;3.60;1.30;;;21.90;1.00;;;;;;5017534;28;20508;-43
2024/04/05 10:40:27;;;;;;;5.90;1.40;;;21.80;1.00;;;;;;5018955;28;20641;-43
2024/04/05 10:42:54;;;;;;;1.90;0.97;;;21.90;1.00;;;;;;5000665;28;20899;-43
2024/04/05 10:45:20;;;;;;;4.47;1.60;;;21.70;1.00;;;;;;5016736;28;20438;-42
2024/04/05 10:47:53;;;;;;;5.33;1.50;;;21.60;1.00;;;;;;5016958;28;20528;-46
2024/04/05 10:50:20;;;;;;;1.63;1.10;;;21.70;1.00;;;;;;5001562;28;20469;-45
2024/04/05 10:52:52;;;;;;;4.17;1.30;;;21.90;1.00;;;;;;5017802;28;20787;-45
2024/04/05 10:55:19;;;;;;;3.33;1.07;;;21.80;1.00;;;;;;5017401;28;20707;-43
2024/04/05 10:57:45;;;;;;;4.27;1.33;;;21.70;1.00;;;;;;5017906;28;20520;-44
2024/04/05 11:00:11;;;;;;;5.47;1.60;;;21.50;1.00;;;;;;5018685;28;20456;-42
2024/04/05 11:02:43;;;;;;;2.23;1.27;;;21.70;1.00;;;;;;5018720;28;20449;-42
2024/04/05 11:05:12;;;;;;;1.93;1.20;;;21.80;1.00;;;;;;5018444;28;20719;-42
2024/04/05 11:07:39;;;;;;;1.77;0.80;;;21.90;1.00;;;;;;5016524;28;20462;-43
2024/04/05 11:10:23;;;;;;;1.53;0.90;;;21.70;1.00;;;;;;5017803;28;20577;-45
2024/04/05 11:12:49;;;;;;;1.67;1.03;;;21.60;1.00;;;;;;4999674;28;20528;-44
2024/04/05 11:15:18;;;;;;;2.17;0.93;;;21.60;1.00;;;;;;5018609;28;20529;-43
2024/04/05 11:17:47;;;;;;;1.50;0.90;;;21.70;1.00;;;;;;5018220;28;20437;-43
2024/04/05 11:20:14;;;;;;;11.40;1.40;;;21.50;1.00;;;;;;5017203;28;20426;-44
2024/04/05 11:22:42;;;;;;;2.77;1.17;;;21.60;1.00;;;;;;5016205;28;20438;-43
2024/04/05 11:25:08;;;;;;;13.20;2.57;;;21.60;1.00;;;;;;5014029;28;20707;-46
2024/04/05 11:27:35;;;;;;;2.10;1.00;;;21.50;1.00;;;;;;5015043;28;20491;-42
2024/04/05 11:30:05;;;;;;;4.50;1.27;;;21.50;1.00;;;;;;5015776;28;20203;-43
2024/04/05 11:32:32;;;;;;;4.60;1.57;;;21.50;1.00;;;;;;5014076;28;20410;-45
2024/04/05 11:35:01;;;;;;;2.33;1.30;;;21.50;1.00;;;;;;5016267;28;20658;-43
2024/04/05 11:37:28;;;;;;;1.70;0.80;;;21.30;1.00;;;;;;5014984;28;20419;-42
2024/04/05 11:39:56;;;;;;;3.03;0.97;;;21.30;1.00;;;;;;5014743;28;20415;-43
2024/04/05 11:42:21;;;;;;;2.30;1.10;;;21.40;1.00;;;;;;5015340;28;20426;-44
2024/04/05 11:44:50;;;;;;;1.40;1.00;;;21.50;1.00;;;;;;5017260;28;20473;-44
2024/04/05 11:47:24;;;;;;;3.30;1.40;;;21.60;1.00;;;;;;5016559;28;20483;-43
2024/04/05 11:49:51;;;;;;;2.50;1.20;;;21.60;1.00;;;;;;5016724;28;20763;-45
2024/04/05 11:52:17;;;;;;;2.07;1.27;;;21.80;1.00;;;;;;5016691;28;20496;-45
2024/04/05 11:54:46;;;;;;;3.17;1.37;;;22.10;1.00;;;;;;4998263;28;20442;-43
2024/04/05 11:57:15;;;;;;;3.50;1.47;;;22.50;1.00;;;;;;5015669;28;20237;-46
2024/04/05 11:59:42;;;;;;;12.00;2.43;;;22.90;1.00;;;;;;5015961;28;20441;-44
2024/04/05 12:02:08;;;;;;;1.97;1.03;;;23.50;1.00;;;;;;5014827;28;20938;-47
2024/04/05 12:04:34;;;;;;;1.70;1.17;;;23.90;1.00;;;;;;5015978;28;20481;-46
2024/04/05 12:06:59;;;;;;;2.97;1.10;;;24.00;1.00;;;;;;5017044;28;20454;-44
2024/04/05 12:09:25;;;;;;;22.20;3.57;;;24.20;1.00;;;;;;5017710;28;20284;-44
2024/04/05 12:11:52;;;;;;;3.20;1.07;;;24.20;1.00;;;;;;5016995;28;20194;-43
2024/04/05 12:14:18;;;;;;;2.43;1.60;;;24.10;1.00;;;;;;5018360;28;20708;-44
2024/04/05 12:16:44;;;;;;;4.50;1.10;;;23.80;1.00;;;;;;5016908;28;20433;-42
2024/04/05 12:19:10;;;;;;;2.70;1.37;;;24.10;1.00;;;;;;5014965;28;20858;-43
2024/04/05 12:21:36;;;;;;;3.50;1.13;;;24.40;1.00;;;;;;5015004;28;20482;-43
2024/04/05 12:24:02;;;;;;;1.80;1.10;;;24.30;1.00;;;;;;5015486;28;20473;-43
2024/04/05 12:26:27;;;;;;;2.23;1.20;;;24.60;1.00;;;;;;5015039;28;20182;-43
2024/04/05 12:28:54;;;;;;;2.93;1.57;;;24.50;1.00;;;;;;5013877;28;20181;-44
2024/04/05 12:31:20;;;;;;;1.80;1.00;;;24.50;1.00;;;;;;5013175;28;20245;-45
2024/04/05 12:33:46;;;;;;;1.87;1.20;;;23.90;1.00;;;;;;5014792;28;20457;-42
2024/04/05 12:36:13;;;;;;;1.80;0.70;;;23.80;1.00;;;;;;5015996;28;20434;-44
2024/04/05 12:38:40;;;;;;;1.33;0.80;;;23.80;1.00;;;;;;5015501;28;20183;-44
2024/04/05 12:41:06;;;;;;;2.07;0.97;;;23.50;1.00;;;;;;5015269;28;20416;-42
2024/04/05 12:43:35;;;;;;;2.43;1.20;;;23.30;1.00;;;;;;5012807;28;20536;-44
2024/04/05 12:46:05;;;;;;;3.77;1.20;;;23.20;1.00;;;;;;5013005;28;20456;-41
2024/04/05 12:48:34;;;;;;;2.50;0.97;;;23.20;1.00;;;;;;5014042;28;20442;-44
2024/04/05 12:51:04;;;;;;;2.43;1.20;;;23.20;1.00;;;;;;5013913;28;20448;-42
2024/04/05 12:53:31;;;;;;;4.20;1.20;;;23.00;1.00;;;;;;5013253;28;20912;-44
2024/04/05 12:56:01;;;;;;;3.27;1.73;;;22.80;1.00;;;;;;5013881;28;20426;-45
2024/04/05 12:58:30;;;;;;;2.33;1.23;;;22.40;1.00;;;;;;4995521;28;20460;-43
2024/04/05 13:01:05;;;;;;;5.13;1.10;;;22.30;1.00;;;;;;4996321;28;20610;-44